Time;durP1;ratioP1;P1;durP2;ratioP2;P2;SDS_P1;SDS_P2;PMS_P1;PMS_P2;Temp;Humidity;BMP_temperature;BMP_pressure;BME280_temperature;BME280_humidity;BME280_pressure;Samples;Min_cycle;Max_cycle;Signal;HPM_P1;HPM_P2
2022/09/13 00:02:00;;;;;;;;;;;;;;;;;;5036562;28;7225;-88
2022/09/13 00:04:25;;;;;;;;;;;;;;;;;;5035789;28;7415;-88
2022/09/13 00:06:50;;;;;;;;;;;;;;;;;;5035850;28;8501;-88
2022/09/13 00:09:16;;;;;;;;;;;;;;;;;;5035407;28;8425;-88
2022/09/13 00:11:42;;;;;;;;;;;;;;;;;;5035475;28;7421;-88
2022/09/13 00:14:08;;;;;;;;;;;;;;;;;;5035573;28;7023;-89
2022/09/13 00:16:33;;;;;;;;;;;;;;;;;;5035502;28;8382;-89
2022/09/13 00:19:00;;;;;;;;;;;;;;;;;;5034941;28;7009;-88
2022/09/13 00:21:26;;;;;;;;;;;;;;;;;;5034951;28;7048;-87
2022/09/13 00:23:53;;;;;;;;;;;;;;;;;;5035293;28;7171;-88
2022/09/13 00:26:24;;;;;;;;;;;;;;;;;;5035256;28;6875;-90
2022/09/13 00:28:54;;;;;;;;;;;;;;;;;;5035238;28;8453;-86
2022/09/13 00:31:22;;;;;;;;;;;;;;;;;;5034769;28;7348;-88
2022/09/13 00:33:49;;;;;;;;;;;;;;;;;;5035086;28;8799;-87
2022/09/13 00:36:16;;;;;;;;;;;;;;;;;;5035022;28;8718;-88
2022/09/13 00:38:42;;;;;;;;;;;;;;;;;;5034418;28;8647;-88
2022/09/13 00:41:11;;;;;;;;;;;;;;;;;;5034424;28;8531;-87
2022/09/13 00:43:43;;;;;;;;;;;;;;;;;;5034866;28;8508;-88
2022/09/13 00:46:10;;;;;;;;;;;;;;;;;;5034476;28;8591;-86
2022/09/13 00:48:36;;;;;;;;;;;;;;;;;;5034579;28;8488;-88
2022/09/13 00:51:05;;;;;;;;;;;;;;;;;;5034605;28;8843;-88
2022/09/13 00:53:35;;;;;;;;;;;;;;;;;;5034450;28;8802;-88
2022/09/13 00:56:08;;;;;;;;;;;;;;;;;;5035444;28;7092;-88
2022/09/13 00:58:50;;;;;;;;;;;;;;;;;;5034473;28;7168;-88
2022/09/13 01:01:18;;;;;;;;;;;;;;;;;;5034223;28;7149;-88
2022/09/13 01:03:46;;;;;;;;;;;;;;;;;;5034245;28;8454;-88
2022/09/13 01:06:15;;;;;;;;;;;;;;;;;;5034497;28;7504;-88
2022/09/13 01:08:45;;;;;;;;;;;;;;;;;;5034326;28;7146;-89
2022/09/13 01:11:18;;;;;;;;;;;;;;;;;;5034647;28;8338;-89
2022/09/13 01:13:45;;;;;;;;;;;;;;;;;;5034532;28;8868;-88
2022/09/13 01:16:11;;;;;;;;;;;;;;;;;;5034478;28;7437;-88
2022/09/13 01:18:36;;;;;;;;;;;;;;;;;;5034298;28;8361;-88
2022/09/13 01:21:20;;;;;;;;;;;;;;;;;;5034179;28;8423;-88
2022/09/13 01:23:49;;;;;;;;;;;;;;;;;;5034079;28;8409;-88
2022/09/13 01:26:24;;;;;;;;;;;;;;;;;;5034208;28;7163;-87
2022/09/13 01:29:28;;;;;;;;;;;;;;;;;;5034220;28;8635;-88
2022/09/13 01:32:12;;;;;;;;;;;;;;;;;;4958391;28;8397;-85
2022/09/13 01:34:56;;;;;;;;;;;;;;;;;;4974528;28;7134;-88
2022/09/13 01:37:21;;;;;;;;;;;;;;;;;;4974145;28;8705;-87
2022/09/13 01:39:54;;;;;;;;;;;;;;;;;;4957704;28;7053;-87
2022/09/13 01:42:38;;;;;;;;;;;;;;;;;;4959084;28;7172;-88
2022/09/13 01:45:09;;;;;;;;;;;;;;;;;;4974020;28;8546;-88
2022/09/13 01:47:49;;;;;;;;;;;;;;;;;;4958061;28;7189;-87
2022/09/13 01:50:14;;;;;;;;;;;;;;;;;;4973531;28;7066;-88
2022/09/13 01:52:42;;;;;;;;;;;;;;;;;;4958209;28;7155;-88
2022/09/13 01:55:18;;;;;;;;;;;;;;;;;;4957951;28;7363;-88
2022/09/13 01:58:13;;;;;;;;;;;;;;;;;;4974176;28;8427;-88
2022/09/13 02:00:54;;;;;;;;;;;;;;;;;;4969933;28;8592;-86
2022/09/13 02:03:30;;;;;;;;;;;;;;;;;;5033056;28;8812;-88
2022/09/13 02:06:02;;;;;;;;;;;;;;;;;;5033971;28;7189;-88
2022/09/13 02:08:44;;;;;;;;;;;;;;;;;;5033295;28;8501;-88
2022/09/13 02:11:12;;;;;;;;;;;;;;;;;;5034502;28;7191;-88
2022/09/13 02:13:46;;;;;;;;;;;;;;;;;;5033712;28;8842;-88
2022/09/13 02:16:17;;;;;;;;;;;;;;;;;;5033690;28;8564;-89
2022/09/13 02:18:48;;;;;;;;;;;;;;;;;;5033638;28;8483;-87
2022/09/13 02:21:19;;;;;;;;;;;;;;;;;;5033741;28;7175;-88
2022/09/13 02:23:52;;;;;;;;;;;;;;;;;;5033506;28;8420;-85
2022/09/13 02:26:20;;;;;;;;;;;;;;;;;;5033961;28;7161;-89
2022/09/13 02:28:55;;;;;;;;;;;;;;;;;;5037675;28;8713;-89
2022/09/13 02:31:43;;;;;;;;;;;;;;;;;;5037243;28;8772;-88
2022/09/13 02:34:15;;;;;;;;;;;;;;;;;;5035942;28;8425;-87
2022/09/13 02:36:44;;;;;;;;;;;;;;;;;;5034397;28;8412;-89
2022/09/13 02:39:15;;;;;;;;;;;;;;;;;;5033118;28;7349;-88
2022/09/13 02:42:01;;;;;;;;;;;;;;;;;;5033060;28;7122;-88
2022/09/13 02:44:57;;;;;;;;;;;;;;;;;;5019149;28;8469;-88
2022/09/13 02:47:23;;;;;;;;;;;;;;;;;;5017376;28;7067;-87
2022/09/13 02:49:54;;;;;;;;;;;;;;;;;;5033185;28;7024;-87
2022/09/13 02:52:33;;;;;;;;;;;;;;;;;;5035426;28;7138;-87
2022/09/13 02:55:13;;;;;;;;;;;;;;;;;;5034298;28;7404;-88
2022/09/13 02:57:48;;;;;;;;;;;;;;;;;;5033761;28;7072;-87
2022/09/13 03:00:13;;;;;;;;;;;;;;;;;;5033226;28;8437;-88
2022/09/13 03:02:42;;;;;;;;;;;;;;;;;;5036650;28;7158;-86
2022/09/13 03:05:08;;;;;;;;;;;;;;;;;;5036353;28;8408;-87
2022/09/13 03:07:34;;;;;;;;;;;;;;;;;;5036111;28;7041;-88
2022/09/13 03:10:04;;;;;;;;;;;;;;;;;;5036367;28;9461;-88
2022/09/13 03:12:33;;;;;;;;;;;;;;;;;;5036837;28;8350;-88
2022/09/13 03:15:08;;;;;;;;;;;;;;;;;;5036562;28;7438;-88
2022/09/13 03:17:33;;;;;;;;;;;;;;;;;;5036510;28;8449;-88
2022/09/13 03:19:59;;;;;;;;;;;;;;;;;;5036579;28;8710;-88
2022/09/13 03:22:33;;;;;;;;;;;;;;;;;;5036956;28;7042;-86
2022/09/13 03:25:09;;;;;;;;;;;;;;;;;;5035878;28;7045;-87
2022/09/13 03:27:51;;;;;;;;;;;;;;;;;;5035881;28;9332;-87
2022/09/13 03:30:18;;;;;;;;;;;;;;;;;;5037168;28;7067;-89
2022/09/13 03:32:57;;;;;;;;;;;;;;;;;;5036274;28;8675;-88
2022/09/13 03:35:49;;;;;;;;;;;;;;;;;;5036135;28;7115;-89
2022/09/13 03:38:28;;;;;;;;;;;;;;;;;;5032535;28;7185;-87
2022/09/13 03:40:54;;;;;;;;;;;;;;;;;;5036154;28;7251;-88
2022/09/13 03:43:37;;;;;;;;;;;;;;;;;;5036237;28;7446;-88
2022/09/13 03:46:10;;;;;;;;;;;;;;;;;;5040611;28;8536;-85
2022/09/13 03:48:38;;;;;;;;;;;;;;;;;;5040115;28;7046;-86
2022/09/13 03:51:04;;;;;;;;;;;;;;;;;;5039448;28;8656;-88
2022/09/13 03:53:34;;;;;;;;;;;;;;;;;;5038889;28;7176;-87
2022/09/13 03:56:00;;;;;;;;;;;;;;;;;;5039663;28;8262;-87
2022/09/13 03:58:26;;;;;;;;;;;;;;;;;;5039422;28;8365;-86
2022/09/13 04:00:53;;;;;;;;;;;;;;;;;;5038100;28;8431;-88
2022/09/13 04:03:19;;;;;;;;;;;;;;;;;;5036282;28;7218;-87
2022/09/13 04:05:45;;;;;;;;;;;;;;;;;;5038339;28;8610;-88
2022/09/13 04:08:11;;;;;;;;;;;;;;;;;;5031267;28;8399;-87
2022/09/13 04:10:37;;;;;;;;;;;;;;;;;;5037081;28;6992;-88
2022/09/13 04:13:03;;;;;;;;;;;;;;;;;;5037681;28;6997;-87
2022/09/13 04:15:32;;;;;;;;;;;;;;;;;;5037935;28;8448;-88
2022/09/13 04:17:58;;;;;;;;;;;;;;;;;;5038311;28;8481;-85
2022/09/13 04:20:24;;;;;;;;;;;;;;;;;;5038430;28;7388;-84
2022/09/13 04:22:54;;;;;;;;;;;;;;;;;;5037152;28;7065;-87
2022/09/13 04:25:21;;;;;;;;;;;;;;;;;;5036015;28;8731;-87
2022/09/13 04:27:47;;;;;;;;;;;;;;;;;;5048339;28;7049;-88
2022/09/13 04:30:13;;;;;;;;;;;;;;;;;;5038665;28;7170;-87
2022/09/13 04:32:40;;;;;;;;;;;;;;;;;;5038773;28;8401;-86
2022/09/13 04:35:08;;;;;;;;;;;;;;;;;;5036781;28;7068;-87
2022/09/13 04:37:34;;;;;;;;;;;;;;;;;;5035954;28;8686;-89
2022/09/13 04:39:59;;;;;;;;;;;;;;;;;;5034579;28;8495;-87
2022/09/13 04:42:25;;;;;;;;;;;;;;;;;;5034494;28;8457;-88
2022/09/13 04:44:50;;;;;;;;;;;;;;;;;;5034531;28;8487;-84
2022/09/13 04:47:16;;;;;;;;;;;;;;;;;;5035404;28;7024;-85
2022/09/13 04:49:41;;;;;;;;;;;;;;;;;;5034734;28;7981;-87
2022/09/13 04:52:07;;;;;;;;;;;;;;;;;;5034854;28;8547;-86
2022/09/13 04:54:33;;;;;;;;;;;;;;;;;;5034542;28;8627;-90
2022/09/13 04:56:58;;;;;;;;;;;;;;;;;;5034285;28;7263;-87
2022/09/13 04:59:24;;;;;;;;;;;;;;;;;;5034180;28;7152;-90
2022/09/13 05:01:49;;;;;;;;;;;;;;;;;;5034636;28;9375;-90
2022/09/13 05:04:15;;;;;;;;;;;;;;;;;;5034806;28;8519;-88
2022/09/13 05:06:40;;;;;;;;;;;;;;;;;;5035975;28;8661;-86
2022/09/13 05:09:06;;;;;;;;;;;;;;;;;;5034147;28;8397;-87
2022/09/13 05:11:32;;;;;;;;;;;;;;;;;;5032818;28;7171;-87
2022/09/13 05:13:59;;;;;;;;;;;;;;;;;;5033374;28;7146;-86
2022/09/13 05:16:27;;;;;;;;;;;;;;;;;;5032640;28;8902;-88
2022/09/13 05:18:53;;;;;;;;;;;;;;;;;;5035785;28;8584;-87
2022/09/13 05:21:19;;;;;;;;;;;;;;;;;;5035399;28;7163;-84
2022/09/13 05:23:48;;;;;;;;;;;;;;;;;;5034253;28;8538;-86
2022/09/13 05:26:13;;;;;;;;;;;;;;;;;;5035753;28;8385;-85
2022/09/13 05:28:39;;;;;;;;;;;;;;;;;;5034796;28;7323;-88
2022/09/13 05:31:04;;;;;;;;;;;;;;;;;;5034917;28;8641;-88
2022/09/13 05:33:32;;;;;;;;;;;;;;;;;;5035495;28;8669;-86
2022/09/13 05:35:58;;;;;;;;;;;;;;;;;;5035402;28;8412;-87
2022/09/13 05:38:24;;;;;;;;;;;;;;;;;;5051733;28;8465;-84
2022/09/13 05:40:57;;;;;;;;;;;;;;;;;;5035180;28;8370;-89
2022/09/13 05:43:24;;;;;;;;;;;;;;;;;;5035319;28;7053;-85
2022/09/13 05:45:50;;;;;;;;;;;;;;;;;;5035847;28;8443;-87
2022/09/13 05:48:15;;;;;;;;;;;;;;;;;;5035408;28;8457;-87
2022/09/13 05:50:41;;;;;;;;;;;;;;;;;;5033922;28;8498;-86
2022/09/13 05:53:07;;;;;;;;;;;;;;;;;;5034975;28;8430;-88
2022/09/13 05:55:33;;;;;;;;;;;;;;;;;;5034594;28;9410;-87
2022/09/13 05:58:00;;;;;;;;;;;;;;;;;;5033837;28;7144;-88
2022/09/13 06:00:25;;;;;;;;;;;;;;;;;;5036792;28;7059;-87
2022/09/13 06:02:51;;;;;;;;;;;;;;;;;;5034684;28;6996;-87
2022/09/13 06:05:16;;;;;;;;;;;;;;;;;;5033801;28;8513;-85
2022/09/13 06:07:42;;;;;;;;;;;;;;;;;;5034910;28;7488;-88
2022/09/13 06:10:08;;;;;;;;;;;;;;;;;;5035046;28;7400;-88
2022/09/13 06:12:34;;;;;;;;;;;;;;;;;;5035891;28;8348;-88
2022/09/13 06:14:59;;;;;;;;;;;;;;;;;;5034870;28;8586;-87
2022/09/13 06:17:24;;;;;;;;;;;;;;;;;;5034340;28;8481;-87
2022/09/13 06:19:50;;;;;;;;;;;;;;;;;;5034695;28;8493;-88
2022/09/13 06:22:16;;;;;;;;;;;;;;;;;;5035702;28;9378;-83
2022/09/13 06:24:41;;;;;;;;;;;;;;;;;;5037217;28;7168;-86
2022/09/13 06:27:09;;;;;;;;;;;;;;;;;;5037304;28;8370;-89
2022/09/13 06:29:34;;;;;;;;;;;;;;;;;;5035247;28;7725;-87
2022/09/13 06:32:00;;;;;;;;;;;;;;;;;;5035238;28;7233;-88
2022/09/13 06:34:26;;;;;;;;;;;;;;;;;;5035705;28;8485;-88
2022/09/13 06:36:51;;;;;;;;;;;;;;;;;;5038891;28;7047;-87
2022/09/13 06:39:17;;;;;;;;;;;;;;;;;;5038052;28;8436;-87
2022/09/13 06:41:42;;;;;;;;;;;;;;;;;;5037858;28;8804;-87
2022/09/13 06:44:08;;;;;;;;;;;;;;;;;;5037575;28;8542;-88
2022/09/13 06:46:34;;;;;;;;;;;;;;;;;;5037257;28;7324;-87
2022/09/13 06:49:02;;;;;;;;;;;;;;;;;;5037843;28;8472;-87
2022/09/13 06:51:29;;;;;;;;;;;;;;;;;;5037973;28;7048;-87
2022/09/13 06:53:55;;;;;;;;;;;;;;;;;;5037604;28;7436;-86
2022/09/13 06:56:22;;;;;;;;;;;;;;;;;;5037321;28;7041;-87
2022/09/13 06:58:50;;;;;;;;;;;;;;;;;;5036783;28;8397;-87
2022/09/13 07:01:20;;;;;;;;;;;;;;;;;;5036353;28;7164;-87
2022/09/13 07:03:48;;;;;;;;;;;;;;;;;;5036414;28;8425;-87
2022/09/13 07:06:15;;;;;;;;;;;;;;;;;;5036577;28;8431;-84
2022/09/13 07:08:42;;;;;;;;;;;;;;;;;;5036320;28;7605;-88
2022/09/13 07:11:08;;;;;;;;;;;;;;;;;;5036625;28;7504;-88
2022/09/13 07:13:34;;;;;;;;;;;;;;;;;;5037278;28;7186;-87
2022/09/13 07:16:00;;;;;;;;;;;;;;;;;;5036787;28;7318;-81
2022/09/13 07:18:26;;;;;;;;;;;;;;;;;;5036672;28;8443;-87
2022/09/13 07:20:51;;;;;;;;;;;;;;;;;;5035635;28;8468;-86
2022/09/13 07:23:16;;;;;;;;;;;;;;;;;;5034798;28;8787;-85
2022/09/13 07:25:42;;;;;;;;;;;;;;;;;;5035218;28;8421;-86
2022/09/13 07:28:07;;;;;;;;;;;;;;;;;;5034914;28;8483;-86
2022/09/13 07:30:33;;;;;;;;;;;;;;;;;;5034438;28;8705;-87
2022/09/13 07:32:58;;;;;;;;;;;;;;;;;;5034866;28;8418;-85
2022/09/13 07:35:24;;;;;;;;;;;;;;;;;;5035222;28;8296;-88
2022/09/13 07:37:49;;;;;;;;;;;;;;;;;;5035803;28;8415;-86
2022/09/13 07:40:15;;;;;;;;;;;;;;;;;;5035952;28;8445;-87
2022/09/13 07:42:40;;;;;;;;;;;;;;;;;;5035226;28;8413;-87
2022/09/13 07:45:06;;;;;;;;;;;;;;;;;;5035910;28;7169;-86
2022/09/13 07:47:32;;;;;;;;;;;;;;;;;;5035219;28;8888;-86
2022/09/13 07:49:58;;;;;;;;;;;;;;;;;;5035620;28;7180;-85
2022/09/13 07:52:23;;;;;;;;;;;;;;;;;;5035947;28;7036;-89
2022/09/13 07:54:49;;;;;;;;;;;;;;;;;;5036050;28;7146;-88
2022/09/13 07:57:15;;;;;;;;;;;;;;;;;;5035567;28;8351;-87
2022/09/13 07:59:40;;;;;;;;;;;;;;;;;;5035675;28;8407;-87
2022/09/13 08:02:08;;;;;;;;;;;;;;;;;;5036012;28;8313;-86
2022/09/13 08:04:34;;;;;;;;;;;;;;;;;;5035535;28;7334;-86
2022/09/13 08:07:00;;;;;;;;;;;;;;;;;;5035574;28;8663;-87
2022/09/13 08:09:26;;;;;;;;;;;;;;;;;;5036039;28;8315;-86
2022/09/13 08:11:52;;;;;;;;;;;;;;;;;;5035072;28;8404;-86
2022/09/13 08:14:19;;;;;;;;;;;;;;;;;;5036215;28;7189;-87
2022/09/13 08:16:46;;;;;;;;;;;;;;;;;;5035515;28;7042;-86
2022/09/13 08:19:13;;;;;;;;;;;;;;;;;;5035566;28;8781;-86
2022/09/13 08:21:41;;;;;;;;;;;;;;;;;;5035731;28;7254;-87
2022/09/13 08:24:12;;;;;;;;;;;;;;;;;;5035507;28;8751;-86
2022/09/13 08:26:37;;;;;;;;;;;;;;;;;;5034933;28;7216;-87
2022/09/13 08:29:05;;;;;;;;;;;;;;;;;;5035156;28;8523;-87
2022/09/13 08:31:32;;;;;;;;;;;;;;;;;;5034753;28;8777;-86
2022/09/13 08:33:58;;;;;;;;;;;;;;;;;;5036605;28;8827;-87
2022/09/13 08:36:28;;;;;;;;;;;;;;;;;;5034931;28;7174;-86
2022/09/13 08:38:56;;;;;;;;;;;;;;;;;;5035397;28;8513;-87
2022/09/13 08:41:31;;;;;;;;;;;;;;;;;;5034390;28;7221;-87
2022/09/13 08:44:03;;;;;;;;;;;;;;;;;;5035165;28;7840;-85
2022/09/13 08:46:35;;;;;;;;;;;;;;;;;;5035166;28;7186;-87
2022/09/13 08:49:06;;;;;;;;;;;;;;;;;;5034587;28;8408;-88
2022/09/13 08:51:32;;;;;;;;;;;;;;;;;;5033838;28;7778;-89
2022/09/13 08:53:58;;;;;;;;;;;;;;;;;;5033689;28;7125;-88
2022/09/13 08:56:26;;;;;;;;;;;;;;;;;;5033666;28;8398;-88
2022/09/13 08:58:58;;;;;;;;;;;;;;;;;;5034320;28;7196;-87
2022/09/13 09:01:42;;;;;;;;;;;;;;;;;;5034274;28;8436;-88
2022/09/13 09:04:07;;;;;;;;;;;;;;;;;;5034620;28;7038;-86
2022/09/13 09:06:35;;;;;;;;;;;;;;;;;;5034199;28;8775;-88
2022/09/13 09:09:13;;;;;;;;;;;;;;;;;;5034295;28;8927;-87
2022/09/13 09:12:05;;;;;;;;;;;;;;;;;;5034262;28;7048;-87
2022/09/13 09:14:35;;;;;;;;;;;;;;;;;;5030484;28;8741;-88
2022/09/13 09:17:05;;;;;;;;;;;;;;;;;;5034336;28;8863;-89
2022/09/13 09:19:39;;;;;;;;;;;;;;;;;;5034342;28;7051;-87
2022/09/13 09:22:12;;;;;;;;;;;;;;;;;;5034406;28;8804;-87
2022/09/13 09:24:39;;;;;;;;;;;;;;;;;;5034594;28;8759;-87
2022/09/13 09:27:14;;;;;;;;;;;;;;;;;;5034061;28;7204;-87
2022/09/13 09:29:45;;;;;;;;;;;;;;;;;;5017895;28;8613;-88
2022/09/13 09:32:37;;;;;;;;;;;;;;;;;;5034068;28;8786;-88
2022/09/13 09:35:22;;;;;;;;;;;;;;;;;;5033691;28;8793;-87
2022/09/13 09:38:10;;;;;;;;;;;;;;;;;;5033986;28;8309;-88
2022/09/13 09:40:37;;;;;;;;;;;;;;;;;;5033496;28;8494;-86
2022/09/13 09:43:14;;;;;;;;;;;;;;;;;;5034097;28;8322;-87
2022/09/13 09:45:42;;;;;;;;;;;;;;;;;;5033782;28;7442;-90
2022/09/13 09:48:15;;;;;;;;;;;;;;;;;;5033860;28;8510;-87
2022/09/13 09:50:46;;;;;;;;;;;;;;;;;;5034188;28;8415;-88
2022/09/13 09:53:27;;;;;;;;;;;;;;;;;;5033598;28;8455;-87
2022/09/13 09:56:19;;;;;;;;;;;;;;;;;;5033466;28;7068;-88
2022/09/13 09:58:46;;;;;;;;;;;;;;;;;;5033341;28;7178;-87
2022/09/13 10:01:18;;;;;;;;;;;;;;;;;;5034086;28;8731;-87
2022/09/13 10:03:50;;;;;;;;;;;;;;;;;;5033334;28;7055;-88
2022/09/13 10:06:21;;;;;;;;;;;;;;;;;;5033467;28;7060;-88
2022/09/13 10:09:16;;;;;;;;;;;;;;;;;;5033392;28;8797;-88
2022/09/13 10:11:55;;;;;;;;;;;;;;;;;;5020363;28;8508;-86
2022/09/13 10:14:36;;;;;;;;;;;;;;;;;;5037585;28;7271;-89
2022/09/13 10:17:17;;;;;;;;;;;;;;;;;;5037522;28;8435;-88
2022/09/13 10:19:57;;;;;;;;;;;;;;;;;;5037308;28;7057;-88
2022/09/13 10:22:23;;;;;;;;;;;;;;;;;;5037884;28;7172;-87
2022/09/13 10:24:49;;;;;;;;;;;;;;;;;;5037435;28;8623;-87
2022/09/13 10:27:33;;;;;;;;;;;;;;;;;;5037078;28;8921;-90
2022/09/13 10:30:02;;;;;;;;;;;;;;;;;;5037473;28;8451;-88
2022/09/13 10:32:29;;;;;;;;;;;;;;;;;;5037242;28;7194;-90
2022/09/13 10:35:00;;;;;;;;;;;;;;;;;;5037586;28;8399;-88
2022/09/13 10:37:32;;;;;;;;;;;;;;;;;;5036981;28;8435;-88
2022/09/13 10:40:06;;;;;;;;;;;;;;;;;;5036846;28;8337;-88
2022/09/13 10:42:31;;;;;;;;;;;;;;;;;;5037326;28;7132;-88
2022/09/13 10:45:00;;;;;;;;;;;;;;;;;;5037306;28;8442;-88
2022/09/13 10:47:32;;;;;;;;;;;;;;;;;;5036672;28;9494;-88
2022/09/13 10:50:09;;;;;;;;;;;;;;;;;;5036738;28;8506;-88
2022/09/13 10:52:42;;;;;;;;;;;;;;;;;;5037094;28;7184;-87
2022/09/13 10:55:19;;;;;;;;;;;;;;;;;;5036731;28;7058;-88
2022/09/13 10:57:46;;;;;;;;;;;;;;;;;;5036404;28;8421;-80
2022/09/13 11:00:18;;;;;;;;;;;;;;;;;;5036647;28;8469;-81
2022/09/13 11:02:52;;;;;;;;;;;;;;;;;;5036414;28;7124;-81
2022/09/13 11:05:37;;;;;;;;;;;;;;;;;;5036783;28;8414;-85
2022/09/13 11:08:10;;;;;;;;;;;;;;;;;;5036846;28;7081;-86
2022/09/13 11:10:51;;;;;;;;;;;;;;;;;;5036392;28;8427;-86
2022/09/13 11:13:27;;;;;;;;;;;;;;;;;;5037426;28;7191;-86
2022/09/13 11:16:19;;;;;;;;;;;;;;;;;;5036628;28;8697;-86
2022/09/13 11:18:48;;;;;;;;;;;;;;;;;;5037119;28;8446;-87
2022/09/13 11:21:30;;;;;;;;;;;;;;;;;;5035248;28;8350;-86
2022/09/13 11:24:12;;;;;;;;;;;;;;;;;;5036638;28;8474;-86
2022/09/13 11:26:48;;;;;;;;;;;;;;;;;;5035588;28;8325;-88
2022/09/13 11:29:13;;;;;;;;;;;;;;;;;;5019566;28;8691;-88
2022/09/13 11:31:39;;;;;;;;;;;;;;;;;;5035355;28;7083;-87
2022/09/13 11:34:23;;;;;;;;;;;;;;;;;;5035963;28;8424;-87
2022/09/13 11:36:58;;;;;;;;;;;;;;;;;;5036527;28;8679;-86
2022/09/13 11:39:31;;;;;;;;;;;;;;;;;;5036071;28;7217;-88
2022/09/13 11:42:12;;;;;;;;;;;;;;;;;;5035881;28;7084;-88
2022/09/13 11:44:43;;;;;;;;;;;;;;;;;;5034634;28;8651;-87
2022/09/13 11:47:12;;;;;;;;;;;;;;;;;;5035639;28;8797;-88
2022/09/13 11:50:00;;;;;;;;;;;;;;;;;;5035158;28;7199;-87
2022/09/13 11:52:29;;;;;;;;;;;;;;;;;;5035468;28;7191;-86
2022/09/13 11:55:14;;;;;;;;;;;;;;;;;;5035399;28;7053;-87
2022/09/13 11:57:44;;;;;;;;;;;;;;;;;;5035438;28;9023;-87
2022/09/13 12:00:24;;;;;;;;;;;;;;;;;;5035452;28;7157;-87
2022/09/13 12:02:50;;;;;;;;;;;;;;;;;;5036525;28;7209;-87
2022/09/13 12:05:21;;;;;;;;;;;;;;;;;;5035350;28;7264;-88
2022/09/13 12:08:14;;;;;;;;;;;;;;;;;;5035795;28;8531;-87
2022/09/13 12:10:42;;;;;;;;;;;;;;;;;;5034713;28;8317;-80
2022/09/13 12:13:15;;;;;;;;;;;;;;;;;;5035040;28;8998;-81
2022/09/13 12:15:43;;;;;;;;;;;;;;;;;;5035648;28;7159;-80
2022/09/13 12:18:17;;;;;;;;;;;;;;;;;;5034986;28;8760;-87
2022/09/13 12:20:47;;;;;;;;;;;;;;;;;;5035522;28;8481;-86
2022/09/13 12:23:29;;;;;;;;;;;;;;;;;;5034938;28;8720;-85
2022/09/13 12:26:02;;;;;;;;;;;;;;;;;;5034982;28;7176;-86
2022/09/13 12:28:39;;;;;;;;;;;;;;;;;;5034776;28;8717;-85
2022/09/13 12:31:15;;;;;;;;;;;;;;;;;;5034837;28;8512;-86
2022/09/13 12:33:42;;;;;;;;;;;;;;;;;;5034424;28;7264;-85
2022/09/13 12:36:19;;;;;;;;;;;;;;;;;;5035026;28;7088;-85
2022/09/13 12:39:04;;;;;;;;;;;;;;;;;;5034410;28;8597;-85
2022/09/13 12:41:41;;;;;;;;;;;;;;;;;;5034605;28;8434;-86
2022/09/13 12:44:16;;;;;;;;;;;;;;;;;;5034503;28;8874;-85
2022/09/13 12:46:48;;;;;;;;;;;;;;;;;;5034551;28;7222;-86
2022/09/13 12:49:29;;;;;;;;;;;;;;;;;;5034420;28;8491;-88
2022/09/13 12:52:14;;;;;;;;;;;;;;;;;;5034622;28;7486;-87
2022/09/13 12:55:02;;;;;;;;;;;;;;;;;;5033726;28;7061;-86
2022/09/13 12:57:42;;;;;;;;;;;;;;;;;;5033683;28;9432;-87
2022/09/13 13:00:18;;;;;;;;;;;;;;;;;;5035022;28;8728;-86
2022/09/13 13:02:51;;;;;;;;;;;;;;;;;;5033367;28;8878;-85
2022/09/13 13:05:22;;;;;;;;;;;;;;;;;;5033943;28;7089;-86
2022/09/13 13:07:55;;;;;;;;;;;;;;;;;;5034636;28;8455;-86
2022/09/13 13:10:24;;;;;;;;;;;;;;;;;;5034242;28;7218;-88
2022/09/13 13:12:50;;;;;;;;;;;;;;;;;;5034841;28;7081;-87
2022/09/13 13:15:16;;;;;;;;;;;;;;;;;;5018436;28;8526;-88
2022/09/13 13:17:42;;;;;;;;;;;;;;;;;;5034450;28;8488;-87
2022/09/13 13:20:27;;;;;;;;;;;;;;;;;;5033944;28;7142;-86
2022/09/13 13:23:02;;;;;;;;;;;;;;;;;;5034146;28;8746;-84
2022/09/13 13:25:35;;;;;;;;;;;;;;;;;;5034767;28;8523;-86
2022/09/13 13:28:01;;;;;;;;;;;;;;;;;;5034275;28;8798;-87
2022/09/13 13:30:40;;;;;;;;;;;;;;;;;;5033698;28;8829;-86
2022/09/13 13:33:15;;;;;;;;;;;;;;;;;;5033763;28;7473;-87
2022/09/13 13:35:41;;;;;;;;;;;;;;;;;;5033785;28;8660;-86
2022/09/13 13:38:22;;;;;;;;;;;;;;;;;;5033718;28;8443;-87
2022/09/13 13:40:49;;;;;;;;;;;;;;;;;;5033050;28;8484;-85
2022/09/13 13:43:28;;;;;;;;;;;;;;;;;;5033560;28;9169;-84
2022/09/13 13:46:17;;;;;;;;;;;;;;;;;;5033004;28;8556;-85
2022/09/13 13:48:43;;;;;;;;;;;;;;;;;;5021545;28;8635;-86
2022/09/13 13:51:14;;;;;;;;;;;;;;;;;;5032970;28;7425;-82
2022/09/13 13:53:42;;;;;;;;;;;;;;;;;;5032895;28;7447;-87
2022/09/13 13:56:17;;;;;;;;;;;;;;;;;;5032541;28;7077;-85
2022/09/13 13:58:46;;;;;;;;;;;;;;;;;;5032665;28;7437;-87
2022/09/13 14:01:18;;;;;;;;;;;;;;;;;;5033196;28;8591;-88
2022/09/13 14:04:02;;;;;;;;;;;;;;;;;;5033674;28;7448;-86
2022/09/13 14:06:43;;;;;;;;;;;;;;;;;;5016988;28;8633;-87
2022/09/13 14:09:08;;;;;;;;;;;;;;;;;;5033676;28;8523;-87
2022/09/13 14:11:40;;;;;;;;;;;;;;;;;;5033381;28;7084;-88
2022/09/13 14:14:08;;;;;;;;;;;;;;;;;;5033375;28;7084;-88
2022/09/13 14:16:40;;;;;;;;;;;;;;;;;;5033444;28;7189;-87
2022/09/13 14:19:28;;;;;;;;;;;;;;;;;;5033203;28;8872;-87
2022/09/13 14:22:05;;;;;;;;;;;;;;;;;;5033749;28;7179;-87
2022/09/13 14:24:38;;;;;;;;;;;;;;;;;;5033208;28;8778;-87
2022/09/13 14:27:04;;;;;;;;;;;;;;;;;;5033135;28;7108;-87
2022/09/13 14:29:30;;;;;;;;;;;;;;;;;;5033296;28;8533;-87
2022/09/13 14:32:03;;;;;;;;;;;;;;;;;;5032917;28;8791;-87
2022/09/13 14:34:30;;;;;;;;;;;;;;;;;;5033333;28;8176;-88
2022/09/13 14:37:02;;;;;;;;;;;;;;;;;;5033188;28;9168;-87
2022/09/13 14:39:28;;;;;;;;;;;;;;;;;;5033138;28;8427;-87
2022/09/13 14:42:01;;;;;;;;;;;;;;;;;;5032842;28;7109;-87
2022/09/13 14:44:28;;;;;;;;;;;;;;;;;;5032976;28;8564;-87
2022/09/13 14:47:01;;;;;;;;;;;;;;;;;;5033049;28;7217;-87
2022/09/13 14:49:32;;;;;;;;;;;;;;;;;;5033485;28;8556;-87
2022/09/13 14:52:05;;;;;;;;;;;;;;;;;;5033016;28;8473;-86
2022/09/13 14:54:41;;;;;;;;;;;;;;;;;;5033031;28;8919;-86
2022/09/13 14:57:17;;;;;;;;;;;;;;;;;;5035463;28;7305;-86
2022/09/13 14:59:49;;;;;;;;;;;;;;;;;;5036708;28;8457;-85
2022/09/13 15:02:14;;;;;;;;;;;;;;;;;;5037441;28;8495;-85
2022/09/13 15:04:44;;;;;;;;;;;;;;;;;;5036395;28;8449;-79
2022/09/13 15:07:27;;;;;;;;;;;;;;;;;;5036343;28;8479;-79
2022/09/13 15:09:58;;;;;;;;;;;;;;;;;;5036880;28;8780;-80
2022/09/13 15:12:27;;;;;;;;;;;;;;;;;;5036218;28;8560;-81
2022/09/13 15:15:11;;;;;;;;;;;;;;;;;;5036134;28;8523;-80
2022/09/13 15:17:55;;;;;;;;;;;;;;;;;;5035884;28;8490;-80
2022/09/13 15:20:21;;;;;;;;;;;;;;;;;;5035805;28;8363;-79
2022/09/13 15:22:49;;;;;;;;;;;;;;;;;;5035227;28;8397;-80
2022/09/13 15:25:19;;;;;;;;;;;;;;;;;;5035621;28;8554;-80
2022/09/13 15:27:47;;;;;;;;;;;;;;;;;;5034742;28;8597;-85
2022/09/13 15:30:27;;;;;;;;;;;;;;;;;;5034847;28;8807;-85
2022/09/13 15:33:16;;;;;;;;;;;;;;;;;;5035175;28;8525;-84
2022/09/13 15:35:43;;;;;;;;;;;;;;;;;;5033242;28;7233;-85
2022/09/13 15:38:17;;;;;;;;;;;;;;;;;;5035216;28;8497;-87
2022/09/13 15:40:45;;;;;;;;;;;;;;;;;;5035739;28;8873;-86
2022/09/13 15:43:10;;;;;;;;;;;;;;;;;;5035811;28;8475;-86
2022/09/13 15:45:36;;;;;;;;;;;;;;;;;;5035790;28;8609;-80
2022/09/13 15:48:01;;;;;;;;;;;;;;;;;;5034349;28;8718;-79
2022/09/13 15:50:32;;;;;;;;;;;;;;;;;;5034937;28;8767;-87
2022/09/13 15:52:59;;;;;;;;;;;;;;;;;;5035419;28;7102;-88
2022/09/13 15:55:26;;;;;;;;;;;;;;;;;;5035507;28;7259;-87
2022/09/13 15:57:52;;;;;;;;;;;;;;;;;;5035521;28;8470;-87
2022/09/13 16:00:22;;;;;;;;;;;;;;;;;;5035358;28;8506;-86
2022/09/13 16:02:47;;;;;;;;;;;;;;;;;;5035430;28;8781;-87
2022/09/13 16:05:13;;;;;;;;;;;;;;;;;;5035573;28;8410;-88
2022/09/13 16:07:40;;;;;;;;;;;;;;;;;;5035030;28;8654;-89
2022/09/13 16:10:14;;;;;;;;;;;;;;;;;;5034605;28;7642;-85
2022/09/13 16:12:40;;;;;;;;;;;;;;;;;;5035057;28;9172;-87
2022/09/13 16:15:07;;;;;;;;;;;;;;;;;;5034916;28;7246;-87
2022/09/13 16:17:32;;;;;;;;;;;;;;;;;;5034729;28;8835;-88
2022/09/13 16:19:58;;;;;;;;;;;;;;;;;;5034687;28;8465;-87
2022/09/13 16:22:24;;;;;;;;;;;;;;;;;;5034342;28;8499;-86
2022/09/13 16:24:50;;;;;;;;;;;;;;;;;;5034604;28;8778;-87
2022/09/13 16:27:17;;;;;;;;;;;;;;;;;;5034517;28;8847;-86
2022/09/13 16:29:43;;;;;;;;;;;;;;;;;;5034288;28;8764;-87
2022/09/13 16:32:09;;;;;;;;;;;;;;;;;;5034113;28;7148;-87
2022/09/13 16:34:35;;;;;;;;;;;;;;;;;;5034155;28;8375;-88
2022/09/13 16:37:00;;;;;;;;;;;;;;;;;;5033859;28;8499;-87
2022/09/13 16:39:26;;;;;;;;;;;;;;;;;;5033950;28;7120;-86
2022/09/13 16:41:51;;;;;;;;;;;;;;;;;;5034845;28;7109;-85
2022/09/13 16:44:17;;;;;;;;;;;;;;;;;;5033798;28;8493;-87
2022/09/13 16:46:43;;;;;;;;;;;;;;;;;;5034157;28;8707;-86
2022/09/13 16:49:08;;;;;;;;;;;;;;;;;;5033851;28;8473;-85
2022/09/13 16:51:35;;;;;;;;;;;;;;;;;;5034320;28;7196;-88
2022/09/13 16:54:01;;;;;;;;;;;;;;;;;;5033806;28;8418;-85
2022/09/13 16:56:27;;;;;;;;;;;;;;;;;;5033847;28;7256;-86
2022/09/13 16:58:53;;;;;;;;;;;;;;;;;;5033649;28;8397;-87
2022/09/13 17:01:20;;;;;;;;;;;;;;;;;;5033785;28;8530;-85
2022/09/13 17:03:46;;;;;;;;;;;;;;;;;;5032697;28;8464;-88
2022/09/13 17:06:14;;;;;;;;;;;;;;;;;;5033906;28;8425;-86
2022/09/13 17:08:44;;;;;;;;;;;;;;;;;;5033417;28;6973;-84
2022/09/13 17:11:12;;;;;;;;;;;;;;;;;;5033367;28;8466;-84
2022/09/13 17:13:39;;;;;;;;;;;;;;;;;;5034092;28;8424;-86
2022/09/13 17:16:16;;;;;;;;;;;;;;;;;;5033741;28;7178;-84
2022/09/13 17:18:41;;;;;;;;;;;;;;;;;;5034105;28;7032;-85
2022/09/13 17:21:06;;;;;;;;;;;;;;;;;;5033028;28;7218;-85
2022/09/13 17:23:32;;;;;;;;;;;;;;;;;;5033963;28;8559;-85
2022/09/13 17:25:57;;;;;;;;;;;;;;;;;;5034279;28;7341;-85
2022/09/13 17:28:23;;;;;;;;;;;;;;;;;;5034131;28;8681;-85